aviador You're here:

KAIB Decoded Metar

in
Report Time2017-09-23 19:55:00
UTC Time2017-09-23 20:05:05
Flight Rules vfr VFR
Wind110° at 04 kt
W.Decomp.*RWY 11: 4.0 kt HW -0 kt LCW
RWY 05: 2.0 kt HW 3.5 kt RCW
W.Rank110° ranks 1
Current wind is below 110° avg. (6.8)
Visibility9999 m
Phenomena:N/A
Clouds:Broken 050 Hf
Broken 060 Hf
Overcast 120 Hf
Expected CloudBase > 2,800 ft AGL from Temp-Dew spread
Ceiling5,000 ft
Temp13°C
Dew Point06°C (63% RH)
AAT10.7°C
QNH1013 hPa
Raw Report
METAR KAIB 231955Z AUTO 11004KT 10SM BKN050 BKN060 OVC120 13/06 A2991
RMK AO2 LTG DSNT NW=

Extra information for KAIB:More info

Social comments